Time;durP1;ratioP1;P1;durP2;ratioP2;P2;SDS_P1;SDS_P2;PMS_P1;PMS_P2;Temp;Humidity;BMP_temperature;BMP_pressure;BME280_temperature;BME280_humidity;BME280_pressure;Samples;Min_cycle;Max_cycle;Signal;HPM_P1;HPM_P2
2023/02/13 00:01:36;;;;;;;34.97;17.77;;;;;;;7.23;100.00;103791.91;2616593;36;20045;-59
2023/02/13 00:04:04;;;;;;;29.67;15.75;;;;;;;7.19;100.00;103784.88;2615617;36;20042;-55
2023/02/13 00:06:35;;;;;;;32.63;17.07;;;;;;;7.23;100.00;103783.88;2616241;36;20042;-53
2023/02/13 00:09:04;;;;;;;36.05;17.60;;;;;;;7.30;100.00;103773.84;2616405;36;20034;-56
2023/02/13 00:11:32;;;;;;;34.30;17.15;;;;;;;7.42;100.00;103768.19;2616451;31;20047;-58
2023/02/13 00:14:00;;;;;;;32.17;16.73;;;;;;;7.34;100.00;103765.69;2616177;36;20045;-52
2023/02/13 00:16:29;;;;;;;36.00;16.73;;;;;;;7.25;100.00;103762.41;2613320;36;20042;-53
2023/02/13 00:18:58;;;;;;;31.95;16.63;;;;;;;7.08;100.00;103768.22;2614398;36;20042;-55
2023/02/13 00:21:26;;;;;;;31.65;16.13;;;;;;;7.07;100.00;103766.47;2616212;36;20531;-55
2023/02/13 00:23:57;;;;;;;32.97;17.00;;;;;;;7.16;100.00;103764.41;2616324;36;20045;-58
2023/02/13 00:26:26;;;;;;;31.77;15.50;;;;;;;7.17;100.00;103768.00;2615580;36;20031;-53
2023/02/13 00:28:58;;;;;;;32.60;15.55;;;;;;;7.15;100.00;103767.13;2615365;36;20035;-58
2023/02/13 00:31:26;;;;;;;35.60;16.23;;;;;;;7.21;100.00;103764.28;2616290;31;20434;-55
2023/02/13 00:33:54;;;;;;;28.13;15.23;;;;;;;7.16;100.00;103758.19;2615336;36;20581;-54
2023/02/13 00:36:24;;;;;;;29.23;14.85;;;;;;;7.13;100.00;103759.13;2615511;36;20034;-57
2023/02/13 00:38:53;;;;;;;30.38;15.73;;;;;;;7.24;100.00;103756.16;2615623;31;20034;-58
2023/02/13 00:41:24;;;;;;;30.03;15.47;;;;;;;7.25;100.00;103751.69;2616134;36;20403;-55
2023/02/13 00:43:53;;;;;;;30.13;14.77;;;;;;;7.20;100.00;103751.81;2616140;36;20538;-55
2023/02/13 00:46:21;;;;;;;28.60;14.17;;;;;;;7.04;100.00;103748.69;2615643;36;20641;-53
2023/02/13 00:48:50;;;;;;;32.75;16.42;;;;;;;7.08;100.00;103755.72;2614462;36;20295;-56
2023/02/13 00:51:23;;;;;;;32.92;16.13;;;;;;;7.06;100.00;103751.31;2615627;36;20038;-55
2023/02/13 00:53:51;;;;;;;26.73;13.93;;;;;;;7.05;100.00;103750.41;2615978;36;20049;-55
2023/02/13 00:56:20;;;;;;;31.77;14.93;;;;;;;7.10;100.00;103753.00;2616087;31;20038;-55
2023/02/13 00:58:51;;;;;;;30.65;14.65;;;;;;;6.98;100.00;103748.84;2615826;36;20038;-55
2023/02/13 01:01:19;;;;;;;26.90;12.50;;;;;;;7.01;100.00;103749.66;2615741;36;20034;-55
2023/02/13 01:03:47;;;;;;;30.52;15.30;;;;;;;6.98;100.00;103748.84;2615144;36;20060;-57
2023/02/13 01:06:16;;;;;;;31.27;13.90;;;;;;;7.02;100.00;103745.16;2614884;36;20035;-56
2023/02/13 01:08:44;;;;;;;25.95;12.70;;;;;;;7.00;100.00;103747.88;2615295;36;20401;-57
2023/02/13 01:11:12;;;;;;;26.75;13.63;;;;;;;7.04;100.00;103747.78;2615526;36;20030;-56
2023/02/13 01:13:41;;;;;;;26.30;13.48;;;;;;;6.98;100.00;103749.72;2615699;36;20038;-54
2023/02/13 01:16:14;;;;;;;27.77;13.43;;;;;;;7.00;100.00;103753.22;2615251;36;20038;-55
2023/02/13 01:18:43;;;;;;;26.75;13.70;;;;;;;7.06;100.00;103751.31;2614389;31;20581;-55
2023/02/13 01:21:22;;;;;;;25.55;12.18;;;;;;;7.06;100.00;103757.53;2615732;36;20026;-55
2023/02/13 01:23:51;;;;;;;26.15;13.05;;;;;;;7.10;100.00;103744.97;2615616;36;20042;-56
2023/02/13 01:26:23;;;;;;;30.92;13.38;;;;;;;7.15;100.00;103751.06;2614525;31;20141;-57
2023/02/13 01:28:56;;;;;;;28.25;13.48;;;;;;;7.09;100.00;103746.75;2614066;36;20042;-59
2023/02/13 01:31:27;;;;;;;26.30;13.10;;;;;;;7.04;100.00;103758.50;2614070;36;20060;-54
2023/02/13 01:33:58;;;;;;;29.40;12.65;;;;;;;7.05;100.00;103749.56;2614421;36;20035;-54
2023/02/13 01:36:27;;;;;;;25.70;12.68;;;;;;;7.04;100.00;103753.13;2615456;36;20145;-55
2023/02/13 01:38:56;;;;;;;;;;;;;;;7.11;100.00;103754.75;2615644;36;20046;-56
2023/02/13 01:41:25;;;;;;;29.92;13.73;;;;;;;7.15;100.00;103759.09;2615569;36;19954;-55
2023/02/13 01:43:55;;;;;;;24.38;11.18;;;;;;;7.19;100.00;103763.44;2614984;36;20030;-56
2023/02/13 01:46:32;;;;;;;24.92;12.18;;;;;;;7.14;100.00;103755.56;2614478;36;20060;-55
2023/02/13 01:49:06;;;;;;;25.08;12.57;;;;;;;7.19;100.00;103748.25;2615210;36;20045;-56
2023/02/13 01:51:36;;;;;;;27.67;13.18;;;;;;;7.12;100.00;103745.78;2615831;36;20034;-52
2023/02/13 01:54:09;;;;;;;23.73;11.80;;;;;;;7.15;100.00;103743.03;2615178;36;20034;-56
2023/02/13 01:56:40;;;;;;;25.38;11.57;;;;;;;7.10;100.00;103745.84;2615517;36;20046;-53
2023/02/13 01:59:13;;;;;;;27.10;12.80;;;;;;;7.05;100.00;103741.53;2615026;36;20037;-54
2023/02/13 02:01:45;;;;;;;25.95;12.48;;;;;;;7.07;100.00;103747.72;2615368;31;20038;-57
2023/02/13 02:04:17;;;;;;;25.73;13.10;;;;;;;7.19;100.00;103734.00;2615304;36;20030;-52
2023/02/13 02:06:51;;;;;;;31.92;12.18;;;;;;;7.04;100.00;103731.72;2615393;31;20030;-54
2023/02/13 02:09:25;;;;;;;25.75;12.43;;;;;;;6.91;100.00;103741.91;2615222;36;20046;-54
2023/02/13 02:11:57;;;;;;;28.17;13.70;;;;;;;6.84;100.00;103725.97;2615910;36;20427;-55
2023/02/13 02:14:27;;;;;;;29.60;13.00;;;;;;;6.82;100.00;103727.84;2615700;36;20027;-54
2023/02/13 02:16:59;;;;;;;29.52;13.63;;;;;;;6.84;100.00;103725.13;2615043;31;20027;-54
2023/02/13 02:19:36;;;;;;;27.25;12.50;;;;;;;6.72;100.00;103722.78;2616480;36;20457;-55
2023/02/13 02:22:34;;;;;;;28.83;13.23;;;;;;;6.73;100.00;103727.19;2616589;36;20034;-57
2023/02/13 02:25:32;;;;;;;30.58;13.23;;;;;;;6.87;100.00;103722.34;2616267;36;20046;-53
2023/02/13 02:28:18;;;;;;;31.60;13.75;;;;;;;6.89;100.00;103722.31;2616563;31;20423;-56
2023/02/13 02:31:14;;;;;;;29.20;14.18;;;;;;;6.90;100.00;103721.41;2616876;31;20438;-56
2023/02/13 02:33:54;;;;;;;29.00;12.93;;;;;;;6.81;100.00;103725.19;2615772;36;20042;-55
2023/02/13 02:36:38;;;;;;;31.13;14.10;;;;;;;6.90;100.00;103718.72;2616388;36;20035;-54
2023/02/13 02:39:16;;;;;;;26.45;13.52;;;;;;;7.01;100.00;103714.81;2616896;36;20045;-57
2023/02/13 02:41:58;;;;;;;28.30;12.65;;;;;;;7.16;100.00;103718.00;2615565;36;20026;-55
2023/02/13 02:44:35;;;;;;;28.23;12.80;;;;;;;6.90;100.00;103722.25;2615953;36;20037;-52
2023/02/13 02:50:10;;;;;;;31.42;14.07;;;;;;;6.88;100.00;103726.78;2615913;36;20034;-53
2023/02/13 02:52:47;;;;;;;25.52;12.55;;;;;;;6.94;100.00;103712.38;2616158;36;20053;-55
2023/02/13 02:55:29;;;;;;;30.17;13.98;;;;;;;6.91;100.00;103721.34;2616287;31;20043;-55
2023/02/13 03:06:18;;;;;;;29.55;13.25;;;;;;;6.88;100.00;103715.22;2616138;36;20050;-53
2023/02/13 03:14:22;;;;;;;26.80;12.73;;;;;;;7.07;100.00;103710.25;2616381;36;20023;-53
2023/02/13 03:22:36;;;;;;;29.38;13.13;;;;;;;7.02;100.00;103710.34;2614429;31;20061;-54
2023/02/13 03:25:12;;;;;;;29.15;13.10;;;;;;;6.99;100.00;103714.00;2616748;31;20029;-58
2023/02/13 03:30:43;;;;;;;29.90;13.93;;;;;;;7.06;100.00;103709.34;2615385;36;20035;-56
2023/02/13 03:33:24;;;;;;;32.78;13.85;;;;;;;7.10;100.00;103713.69;2616032;36;20046;-52
2023/02/13 03:38:49;;;;;;;26.42;12.45;;;;;;;7.01;100.00;103712.16;2616060;36;20038;-57
2023/02/13 03:41:23;;;;;;;28.08;13.85;;;;;;;7.03;100.00;103713.91;2616178;36;20045;-53
2023/02/13 03:44:01;;;;;;;29.30;13.65;;;;;;;6.97;100.00;103710.47;2615648;36;20443;-55
2023/02/13 03:46:35;;;;;;;27.50;12.68;;;;;;;7.05;100.00;103712.06;2615368;31;20043;-55
2023/02/13 03:51:50;;;;;;;27.33;12.52;;;;;;;7.00;100.00;103713.06;2615684;36;20030;-54
2023/02/13 03:59:47;;;;;;;29.73;13.80;;;;;;;7.10;100.00;103712.81;2615946;31;20030;-54
2023/02/13 04:02:22;;;;;;;26.77;12.03;;;;;;;7.14;100.00;103712.69;2615610;36;20033;-56
2023/02/13 04:04:55;;;;;;;29.95;12.48;;;;;;;7.01;100.00;103712.16;2616039;36;20291;-56
2023/02/13 04:07:32;;;;;;;29.25;13.45;;;;;;;7.13;100.00;103705.56;2615823;36;20085;-55
2023/02/13 04:10:05;;;;;;;31.17;13.85;;;;;;;7.08;100.00;103706.63;2616480;36;20466;-56
2023/02/13 04:12:41;;;;;;;26.88;11.63;;;;;;;7.04;100.00;103704.94;2616226;31;20037;-56
2023/02/13 04:15:16;;;;;;;28.55;13.05;;;;;;;7.03;100.00;103706.75;2616120;36;20439;-56
2023/02/13 04:17:48;;;;;;;29.02;13.95;;;;;;;7.01;100.00;103711.28;2615990;36;20027;-58
2023/02/13 04:20:17;;;;;;;28.75;13.75;;;;;;;6.96;100.00;103714.09;2615320;36;20042;-56
2023/02/13 04:22:46;;;;;;;31.05;13.57;;;;;;;6.99;100.00;103702.41;2615727;36;20038;-52
2023/02/13 04:25:20;;;;;;;30.40;13.82;;;;;;;7.13;100.00;103704.69;2615828;36;20035;-55
2023/02/13 04:27:48;;;;;;;31.40;13.40;;;;;;;7.05;100.00;103696.00;2616130;36;20022;-54
2023/02/13 04:30:17;;;;;;;24.02;11.20;;;;;;;7.06;100.00;103703.97;2616619;31;20520;-53
2023/02/13 04:32:45;;;;;;;29.92;12.80;;;;;;;7.10;100.00;103702.97;2615392;36;20033;-56
2023/02/13 04:35:13;;;;;;;26.95;12.32;;;;;;;7.15;100.00;103698.34;2615557;31;20035;-59
2023/02/13 04:37:42;;;;;;;29.33;12.77;;;;;;;7.26;100.00;103694.50;2616077;36;20033;-59
2023/02/13 04:40:11;;;;;;;25.08;12.00;;;;;;;7.21;100.00;103697.31;2615970;36;20551;-55
2023/02/13 04:42:42;;;;;;;29.27;13.27;;;;;;;7.10;100.00;103694.94;2615707;36;20027;-57
2023/02/13 04:45:11;;;;;;;23.95;11.82;;;;;;;7.15;100.00;103692.13;2615497;36;20035;-57
2023/02/13 04:47:40;;;;;;;29.75;12.70;;;;;;;7.07;100.00;103694.16;2615479;36;20022;-55
2023/02/13 04:50:09;;;;;;;25.80;13.13;;;;;;;7.01;100.00;103698.75;2615527;36;20022;-58
2023/02/13 04:52:38;;;;;;;28.85;13.35;;;;;;;7.00;100.00;103702.34;2615913;36;20539;-50
2023/02/13 04:55:07;;;;;;;25.80;11.38;;;;;;;6.88;100.00;103702.69;2616241;36;20061;-56
2023/02/13 04:57:35;;;;;;;25.25;11.65;;;;;;;6.86;100.00;103688.50;2615675;36;20035;-58
2023/02/13 05:00:07;;;;;;;26.45;12.57;;;;;;;7.03;100.00;103687.13;2615472;36;20039;-56
2023/02/13 05:02:35;;;;;;;27.40;12.13;;;;;;;7.01;100.00;103684.50;2616384;31;20044;-57
2023/02/13 05:05:10;;;;;;;27.30;12.32;;;;;;;6.96;100.00;103676.59;2617349;36;20427;-56
2023/02/13 05:07:38;;;;;;;26.65;11.80;;;;;;;6.87;100.00;103682.19;2614939;36;20043;-59
2023/02/13 05:10:08;;;;;;;31.08;13.15;;;;;;;6.89;100.00;103683.03;2615675;36;20039;-53
2023/02/13 05:12:36;;;;;;;29.15;12.23;;;;;;;6.96;100.00;103681.06;2615576;36;20038;-56
2023/02/13 05:15:08;;;;;;;26.70;12.00;;;;;;;7.05;100.00;103680.78;2615643;36;20038;-52
2023/02/13 05:17:36;;;;;;;28.85;12.10;;;;;;;7.04;100.00;103678.16;2615998;36;20070;-54
2023/02/13 05:20:05;;;;;;;26.23;11.63;;;;;;;7.02;100.00;103680.88;2613998;31;20042;-57
2023/02/13 05:25:14;;;;;;;26.15;11.98;;;;;;;7.01;100.00;103684.50;2616090;36;20034;-53
2023/02/13 05:27:42;;;;;;;27.52;12.05;;;;;;;7.12;100.00;103677.03;2615672;36;20045;-53
2023/02/13 05:30:13;;;;;;;27.63;12.82;;;;;;;7.05;100.00;103679.91;2615104;36;20046;-56
2023/02/13 05:32:42;;;;;;;27.48;11.77;;;;;;;7.07;100.00;103681.66;2615763;36;20042;-55
2023/02/13 05:35:10;;;;;;;30.02;12.18;;;;;;;7.10;100.00;103678.88;2615441;36;20053;-54
2023/02/13 05:37:39;;;;;;;28.42;11.95;;;;;;;6.95;100.00;103687.31;2616032;36;20427;-55
2023/02/13 05:40:09;;;;;;;30.45;13.30;;;;;;;7.13;100.00;103678.78;2615303;31;20031;-56
2023/02/13 05:42:37;;;;;;;29.95;12.40;;;;;;;7.06;100.00;103677.19;2615598;36;20401;-53
2023/02/13 05:45:06;;;;;;;29.85;12.15;;;;;;;6.99;100.00;103678.28;2615132;36;20038;-52
2023/02/13 05:47:37;;;;;;;31.20;12.60;;;;;;;7.15;100.00;103681.41;2616129;32;20461;-54
2023/02/13 05:50:07;;;;;;;30.10;13.55;;;;;;;7.03;100.00;103674.63;2616005;36;20419;-53
2023/02/13 05:52:35;;;;;;;29.25;12.57;;;;;;;6.96;100.00;103676.59;2615545;36;20031;-53
2023/02/13 05:55:03;;;;;;;31.38;12.93;;;;;;;7.06;100.00;103677.19;2616239;36;20450;-54
2023/02/13 05:57:32;;;;;;;30.95;12.65;;;;;;;7.07;100.00;103672.75;2615259;36;20041;-56
2023/02/13 06:00:00;;;;;;;28.67;13.02;;;;;;;7.00;100.00;103678.25;2614966;36;20061;-54
2023/02/13 06:02:28;;;;;;;25.23;12.23;;;;;;;7.10;100.00;103680.69;2614725;36;20666;-56
2023/02/13 06:04:59;;;;;;;28.35;12.27;;;;;;;7.10;100.00;103678.00;2614267;36;20979;-55
2023/02/13 06:07:28;;;;;;;31.08;12.00;;;;;;;6.97;100.00;103674.78;2616114;36;20046;-53
2023/02/13 06:09:58;;;;;;;31.33;12.23;;;;;;;7.02;100.00;103680.88;2614077;36;20049;-55
2023/02/13 06:12:27;;;;;;;31.17;12.93;;;;;;;7.06;100.00;103676.34;2615001;36;20545;-54
2023/02/13 06:14:55;;;;;;;30.15;13.55;;;;;;;7.09;100.00;103673.56;2615492;36;20038;-54
2023/02/13 06:17:23;;;;;;;32.92;13.00;;;;;;;7.16;100.00;103683.19;2614967;36;20034;-57
2023/02/13 06:19:51;;;;;;;29.05;12.38;;;;;;;7.20;100.00;103682.19;2614827;36;20043;-53
2023/02/13 06:22:22;;;;;;;26.58;11.93;;;;;;;7.23;100.00;103678.50;2615815;31;20427;-54
2023/02/13 06:24:51;;;;;;;31.73;13.18;;;;;;;7.12;100.00;103679.69;2614968;36;20053;-51
2023/02/13 06:27:19;;;;;;;32.83;13.05;;;;;;;7.16;100.00;103677.81;2615568;31;20570;-57
2023/02/13 06:29:47;;;;;;;30.27;13.38;;;;;;;7.04;100.00;103679.06;2614633;36;20434;-55
2023/02/13 06:32:16;;;;;;;30.00;13.40;;;;;;;7.23;100.00;103683.88;2614898;36;20033;-57
2023/02/13 06:34:44;;;;;;;27.92;12.80;;;;;;;7.37;100.00;103687.03;2613979;36;20423;-56
2023/02/13 06:37:12;;;;;;;28.50;13.45;;;;;;;7.29;100.00;103694.44;2615421;31;20551;-53
2023/02/13 06:39:44;;;;;;;31.25;14.07;;;;;;;7.29;100.00;103700.66;2615668;36;20428;-58
2023/02/13 06:42:12;;;;;;;29.10;12.00;;;;;;;7.26;100.00;103695.38;2615998;31;20026;-54
2023/02/13 06:44:40;;;;;;;28.33;12.85;;;;;;;7.28;100.00;103704.25;2613911;31;20046;-55
2023/02/13 06:47:09;;;;;;;27.48;12.77;;;;;;;7.28;100.00;103698.88;2615612;36;20027;-56
2023/02/13 06:49:37;;;;;;;32.20;13.65;;;;;;;7.17;100.00;103695.66;2615429;31;20046;-54
2023/02/13 06:52:06;;;;;;;28.90;12.47;;;;;;;7.05;100.00;103704.03;2615961;36;20060;-55
2023/02/13 06:54:34;;;;;;;35.40;14.68;;;;;;;7.18;100.00;103708.13;2614902;36;20102;-55
2023/02/13 06:57:05;;;;;;;29.65;13.38;;;;;;;7.35;100.00;103704.97;2613341;36;20046;-56
2023/02/13 06:59:34;;;;;;;31.02;13.35;;;;;;;7.16;100.00;103721.56;2613195;36;20045;-56
2023/02/13 07:02:02;;;;;;;28.77;14.43;;;;;;;7.03;100.00;103713.91;2614176;36;20038;-58
2023/02/13 07:04:30;;;;;;;27.38;12.45;;;;;;;6.97;100.00;103710.47;2615485;31;20593;-54
2023/02/13 07:06:59;;;;;;;32.05;14.10;;;;;;;7.05;100.00;103712.06;2615816;36;20038;-55
2023/02/13 07:09:27;;;;;;;28.13;12.43;;;;;;;7.12;100.00;103719.88;2616148;36;20045;-54
2023/02/13 07:11:56;;;;;;;35.57;14.90;;;;;;;7.07;100.00;103712.91;2615021;36;20034;-56
2023/02/13 07:14:27;;;;;;;32.53;13.77;;;;;;;7.08;100.00;103717.34;2616532;31;20043;-54
2023/02/13 07:16:55;;;;;;;32.75;13.88;;;;;;;7.17;100.00;103722.44;2615907;31;20029;-55
2023/02/13 07:19:23;;;;;;;35.00;14.32;;;;;;;7.19;100.00;103723.28;2615786;36;20581;-50
2023/02/13 07:21:52;;;;;;;30.00;13.30;;;;;;;7.24;100.00;103721.31;2616169;36;20093;-54
2023/02/13 07:24:20;;;;;;;33.17;13.38;;;;;;;7.13;100.00;103726.13;2615500;36;20026;-52
2023/02/13 07:26:48;;;;;;;36.33;14.25;;;;;;;7.16;100.00;103726.91;2615535;36;20042;-59
2023/02/13 07:29:17;;;;;;;29.50;13.35;;;;;;;7.24;100.00;103724.00;2615835;36;20042;-55
2023/02/13 07:31:47;;;;;;;30.80;14.32;;;;;;;7.33;100.00;103728.22;2615433;36;20570;-58
2023/02/13 07:34:16;;;;;;;30.17;14.20;;;;;;;7.36;100.00;103729.03;2616246;36;20049;-56
2023/02/13 07:36:44;;;;;;;31.75;13.50;;;;;;;7.42;100.00;103727.97;2615733;36;20106;-56
2023/02/13 07:39:12;;;;;;;29.73;13.25;;;;;;;7.41;100.00;103722.66;2615373;36;20049;-55
2023/02/13 07:41:41;;;;;;;29.38;13.73;;;;;;;7.44;100.00;103730.59;2613122;36;20034;-58
2023/02/13 07:44:09;;;;;;;33.50;15.15;;;;;;;7.51;100.00;103730.38;2612497;36;20034;-54
2023/02/13 07:46:37;;;;;;;29.83;14.15;;;;;;;7.46;100.00;103728.75;2611792;36;20038;-57
2023/02/13 07:49:08;;;;;;;30.73;13.10;;;;;;;7.50;100.00;103741.16;2615867;36;20039;-57
2023/02/13 07:51:37;;;;;;;30.48;14.90;;;;;;;7.61;100.00;103739.03;2615534;36;20038;-54
2023/02/13 07:54:05;;;;;;;33.38;14.10;;;;;;;7.66;100.00;103737.09;2616240;36;20035;-52
2023/02/13 07:56:33;;;;;;;32.45;15.15;;;;;;;7.60;100.00;103734.59;2615257;36;20038;-53
2023/02/13 07:59:02;;;;;;;27.85;14.23;;;;;;;7.68;100.00;103735.22;2616128;31;20046;-57
2023/02/13 08:01:30;;;;;;;33.08;15.07;;;;;;;7.63;100.00;103730.94;2615407;36;20041;-58
2023/02/13 08:03:58;;;;;;;31.83;14.32;;;;;;;7.66;100.00;103736.22;2615290;36;20031;-54
2023/02/13 08:06:29;;;;;;;29.13;14.30;;;;;;;7.64;100.00;103741.63;2615320;36;20035;-51
2023/02/13 08:14:19;;;;;;;35.28;15.63;;;;;;;7.72;100.00;103736.88;2615226;31;20023;-54
2023/02/13 08:16:47;;;;;;;31.52;14.32;;;;;;;7.79;100.00;103734.00;2615460;36;20045;-54
2023/02/13 08:19:15;;;;;;;31.27;14.82;;;;;;;7.79;100.00;103742.06;2615422;36;20542;-55
2023/02/13 08:21:46;;;;;;;31.83;14.70;;;;;;;7.87;100.00;103740.03;2616016;31;20039;-55
2023/02/13 08:24:15;;;;;;;30.38;14.82;;;;;;;7.87;100.00;103745.41;2615657;36;20038;-55
2023/02/13 08:26:43;;;;;;;34.65;15.50;;;;;;;7.94;100.00;103735.38;2615742;36;20034;-56
2023/02/13 08:29:11;;;;;;;33.20;15.88;;;;;;;7.94;100.00;103733.56;2615038;36;20034;-54
2023/02/13 08:31:40;;;;;;;29.77;14.48;;;;;;;7.92;100.00;103743.47;2614603;36;20037;-56
2023/02/13 08:34:08;;;;;;;32.60;15.63;;;;;;;7.95;100.00;103740.69;2615231;36;20037;-57
2023/02/13 08:36:37;;;;;;;36.38;17.27;;;;;;;7.99;100.00;103736.94;2615837;36;20034;-53
2023/02/13 08:39:08;;;;;;;32.20;15.40;;;;;;;8.05;100.00;103736.78;2616035;36;20038;-56
2023/02/13 08:41:36;;;;;;;33.50;15.05;;;;;;;8.22;100.00;103735.34;2615744;36;20034;-55
2023/02/13 08:44:04;;;;;;;29.88;15.07;;;;;;;8.21;100.00;103744.31;2614882;36;20041;-53
2023/02/13 08:46:33;;;;;;;31.33;14.88;;;;;;;8.13;100.00;103751.75;2615494;36;20037;-53
2023/02/13 08:49:07;;;;;;;30.60;14.93;;;;;;;8.29;100.00;103749.44;2616209;39;20583;-54
2023/02/13 08:51:36;;;;;;;31.77;15.88;;;;;;;8.12;100.00;103744.63;2615437;36;20530;-57
2023/02/13 08:54:04;;;;;;;30.60;14.60;;;;;;;8.11;100.00;103753.59;2615460;36;20046;-55
2023/02/13 08:56:35;;;;;;;30.43;14.67;;;;;;;8.25;100.00;103748.66;2615782;36;20037;-54
2023/02/13 08:59:03;;;;;;;34.83;16.05;;;;;;;8.19;100.00;103747.06;2614729;31;20042;-54
2023/02/13 09:01:32;;;;;;;30.23;15.07;;;;;;;8.36;100.00;103742.94;2615974;31;20042;-54
2023/02/13 09:04:00;;;;;;;31.90;15.65;;;;;;;8.33;100.00;103743.94;2616031;36;20404;-55
2023/02/13 09:06:29;;;;;;;35.07;16.07;;;;;;;8.48;100.00;103741.69;2615273;36;20479;-53
2023/02/13 09:08:57;;;;;;;31.17;15.98;;;;;;;8.54;100.00;103746.88;2614513;36;20035;-55
2023/02/13 09:11:26;;;;;;;37.72;16.55;;;;;;;8.46;100.00;103743.56;2616191;36;20038;-55
2023/02/13 09:13:57;;;;;;;31.30;16.63;;;;;;;8.44;100.00;103734.66;2614980;36;20046;-56
2023/02/13 09:16:25;;;;;;;32.90;16.45;;;;;;;8.46;100.00;103733.69;2615425;36;20462;-56
2023/02/13 09:18:54;;;;;;;36.47;17.00;;;;;;;8.54;100.00;103730.78;2615106;36;20065;-55
2023/02/13 09:21:24;;;;;;;35.50;17.67;;;;;;;8.56;100.00;103728.91;2616168;36;20026;-57
2023/02/13 09:23:54;;;;;;;32.95;15.30;;;;;;;8.76;100.00;103731.78;2615726;36;20170;-58
2023/02/13 09:26:22;;;;;;;32.88;16.40;;;;;;;8.90;100.00;103730.41;2614590;36;20035;-56
2023/02/13 09:28:51;;;;;;;31.10;15.98;;;;;;;8.68;100.00;103728.47;2615693;36;20038;-50
2023/02/13 09:31:22;;;;;;;33.60;15.55;;;;;;;8.98;100.00;103732.81;2615876;36;20027;-55
2023/02/13 09:33:52;;;;;;;32.30;16.20;;;;;;;8.99;100.00;103732.75;2615548;36;20034;-51
2023/02/13 09:36:22;;;;;;;30.40;15.20;;;;;;;9.03;100.00;103742.47;2615432;36;20031;-55
2023/02/13 09:38:55;;;;;;;32.95;16.77;;;;;;;9.04;100.00;103730.81;2614724;31;20077;-54
2023/02/13 09:41:26;;;;;;;32.65;15.75;;;;;;;9.26;100.00;103730.00;2614189;36;20065;-58
2023/02/13 09:43:58;;;;;;;31.50;15.75;;;;;;;9.54;100.00;103728.97;2616091;36;20026;-54
2023/02/13 09:46:33;;;;;;;31.17;14.70;;;;;;;9.54;100.00;103734.34;2614948;36;20026;-57
2023/02/13 09:49:07;;;;;;;30.60;15.95;;;;;;;9.35;100.00;103735.06;2615849;36;20543;-57
2023/02/13 09:51:36;;;;;;;32.55;16.83;;;;;;;9.24;100.00;103734.56;2615590;36;20176;-56
2023/02/13 09:54:07;;;;;;;31.00;16.58;;;;;;;9.42;100.00;103736.56;2615004;36;20034;-56
2023/02/13 09:56:53;;;;;;;30.55;15.63;;;;;;;9.38;100.00;103734.94;2614006;36;20045;-56
2023/02/13 09:59:48;;;;;;;33.33;17.40;;;;;;;9.47;100.00;103734.56;2613404;36;20454;-53
2023/02/13 10:02:42;;;;;;;30.27;15.57;;;;;;;9.52;100.00;103737.09;2614301;36;20526;-53
2023/02/13 10:05:23;;;;;;;29.13;14.90;;;;;;;9.49;100.00;103734.50;2612822;36;20030;-54
2023/02/13 10:08:01;;;;;;;30.17;16.08;;;;;;;9.64;100.00;103741.13;2615230;36;20027;-57
2023/02/13 10:10:45;;;;;;;28.23;14.80;;;;;;;9.59;100.00;103737.75;2614871;36;20415;-56
2023/02/13 10:13:39;;;;;;;31.90;15.95;;;;;;;9.54;100.00;103740.63;2614837;36;20034;-56
2023/02/13 10:16:14;;;;;;;29.25;15.05;;;;;;;9.53;100.00;103740.66;2614596;36;20038;-54
2023/02/13 10:18:50;;;;;;;29.20;15.80;;;;;;;9.58;100.00;103735.97;2614579;31;20035;-53
2023/02/13 10:21:23;;;;;;;31.35;15.32;;;;;;;9.35;100.00;103737.75;2614978;36;20034;-56
2023/02/13 10:23:57;;;;;;;28.13;15.00;;;;;;;9.34;100.00;103735.97;2614794;36;20038;-57
2023/02/13 10:26:41;;;;;;;29.75;15.23;;;;;;;9.24;100.00;103738.13;2614597;36;20034;-59
2023/02/13 10:32:02;;;;;;;26.58;14.43;;;;;;;9.56;100.00;103737.88;2616560;36;20038;-58
2023/02/13 10:34:43;;;;;;;30.23;15.25;;;;;;;9.58;100.00;103733.28;2615483;36;20030;-57
2023/02/13 10:37:17;;;;;;;27.60;14.95;;;;;;;9.67;100.00;103732.94;2614442;36;20113;-55
2023/02/13 10:39:47;;;;;;;23.55;13.77;;;;;;;9.73;100.00;103742.56;2615749;36;20045;-56
2023/02/13 10:42:24;;;;;;;26.45;14.43;;;;;;;9.82;100.00;103728.78;2615889;36;20034;-54
2023/02/13 10:45:03;;;;;;;27.45;15.20;;;;;;;9.94;100.00;103738.19;2616025;36;20559;-55
2023/02/13 10:47:36;;;;;;;;;;;;;;;9.83;100.00;103725.13;2615554;36;20519;-57
2023/02/13 10:50:19;;;;;;;30.35;14.27;;;;;;;10.02;100.00;103727.97;2615424;36;19953;-55
2023/02/13 10:52:56;;;;;;;26.60;14.60;;;;;;;9.90;100.00;103717.72;2615736;36;20085;-57
2023/02/13 10:55:40;;;;;;;26.95;14.75;;;;;;;10.07;100.00;103726.00;2616285;36;20431;-55
2023/02/13 10:58:14;;;;;;;23.75;13.73;;;;;;;10.10;100.00;103709.72;2615152;36;20563;-57
2023/02/13 11:00:50;;;;;;;24.95;13.35;;;;;;;10.16;100.00;103703.22;2615161;36;20034;-55
2023/02/13 11:03:23;;;;;;;25.83;14.02;;;;;;;10.11;100.00;103703.38;2615388;36;20038;-57
2023/02/13 11:05:55;;;;;;;26.67;14.73;;;;;;;10.05;100.00;103698.25;2615568;36;20145;-54
2023/02/13 11:08:26;;;;;;;27.02;15.48;;;;;;;10.18;100.00;103699.50;2616195;36;20073;-54
2023/02/13 11:10:54;;;;;;;26.70;13.43;;;;;;;10.35;100.00;103700.66;2615774;36;20045;-55
2023/02/13 11:13:25;;;;;;;25.45;14.32;;;;;;;10.43;100.00;103698.50;2616408;36;20035;-56
2023/02/13 11:16:03;;;;;;;26.95;13.65;;;;;;;10.32;100.00;103696.25;2615168;36;20053;-58
2023/02/13 11:18:36;;;;;;;27.17;15.27;;;;;;;10.24;100.00;103682.22;2615729;36;20034;-57
2023/02/13 11:21:10;;;;;;;29.67;15.10;;;;;;;10.16;100.00;103690.63;2616264;36;20041;-57
2023/02/13 11:23:44;;;;;;;26.27;14.30;;;;;;;10.48;100.00;103685.72;2616311;36;20474;-53
2023/02/13 11:26:16;;;;;;;27.95;13.98;;;;;;;10.68;100.00;103686.66;2614793;31;20027;-55
2023/02/13 11:28:53;;;;;;;28.92;15.32;;;;;;;10.67;100.00;103684.91;2614867;36;20120;-55
2023/02/13 11:31:26;;;;;;;24.77;13.85;;;;;;;10.80;100.00;103680.72;2615715;36;20057;-56
2023/02/13 11:33:55;;;;;;;27.42;14.45;;;;;;;10.83;100.00;103685.13;2613794;36;20038;-57
2023/02/13 11:36:32;;;;;;;29.42;15.07;;;;;;;10.98;100.00;103678.16;2615328;36;20713;-56
2023/02/13 11:39:06;;;;;;;26.25;14.52;;;;;;;10.83;100.00;103680.59;2614996;36;20037;-56
2023/02/13 11:41:41;;;;;;;27.27;14.00;;;;;;;11.03;100.00;103673.44;2614662;36;20039;-59
2023/02/13 11:44:23;;;;;;;25.92;14.15;;;;;;;10.82;100.00;103676.16;2615077;31;20126;-57
2023/02/13 11:46:53;;;;;;;25.73;14.30;;;;;;;10.90;100.00;103664.19;2615209;36;20538;-56
2023/02/13 11:49:24;;;;;;;25.30;14.20;;;;;;;11.14;100.00;103664.88;2612948;36;20058;-57
2023/02/13 11:51:57;;;;;;;26.48;14.63;;;;;;;10.96;100.00;103661.19;2614763;31;20045;-55
2023/02/13 11:54:32;;;;;;;26.95;15.25;;;;;;;10.63;100.00;103656.34;2614972;36;20590;-56
2023/02/13 11:57:03;;;;;;;26.35;14.93;;;;;;;10.78;100.00;103655.69;2615206;36;20023;-55
2023/02/13 11:59:35;;;;;;;27.38;14.70;;;;;;;10.68;100.00;103648.97;2615021;31;20039;-57
2023/02/13 12:02:15;;;;;;;26.92;14.88;;;;;;;10.49;100.00;103649.75;2614669;36;20038;-56
2023/02/13 12:04:44;;;;;;;26.73;14.23;;;;;;;10.78;100.00;103644.91;2615426;36;20443;-55
2023/02/13 12:07:22;;;;;;;24.58;14.05;;;;;;;10.92;100.00;103640.72;2614129;36;20450;-59
2023/02/13 12:09:55;;;;;;;28.55;15.90;;;;;;;10.82;100.00;103635.75;2615297;36;20614;-56
2023/02/13 12:12:37;;;;;;;28.23;15.02;;;;;;;10.88;100.00;103634.59;2615855;36;20581;-58
2023/02/13 12:15:17;;;;;;;27.00;14.35;;;;;;;10.96;100.00;103636.94;2616367;31;20499;-53
2023/02/13 12:17:48;;;;;;;25.00;14.60;;;;;;;11.03;100.00;103627.63;2615401;36;20035;-57